sensor_id;sensor_type;location;lat;lon;timestamp;P1;durP1;ratioP1;P2;durP2;ratioP2
1691;SDS011;843;52.054;8.552;2023-07-29T00:01:33;4.20;;;2.80;;
1691;SDS011;843;52.054;8.552;2023-07-29T00:04:00;3.27;;;2.97;;
1691;SDS011;843;52.054;8.552;2023-07-29T00:06:26;3.60;;;2.37;;
1691;SDS011;843;52.054;8.552;2023-07-29T00:08:53;3.10;;;2.60;;
1691;SDS011;843;52.054;8.552;2023-07-29T00:11:19;3.40;;;2.43;;
1691;SDS011;843;52.054;8.552;2023-07-29T00:13:46;2.83;;;2.63;;
1691;SDS011;843;52.054;8.552;2023-07-29T00:16:16;4.00;;;2.83;;
1691;SDS011;843;52.054;8.552;2023-07-29T00:18:43;4.73;;;2.87;;
1691;SDS011;843;52.054;8.552;2023-07-29T00:21:09;3.07;;;2.40;;
1691;SDS011;843;52.054;8.552;2023-07-29T00:23:35;3.20;;;2.80;;
1691;SDS011;843;52.054;8.552;2023-07-29T00:26:02;4.47;;;3.20;;
1691;SDS011;843;52.054;8.552;2023-07-29T00:28:28;5.00;;;2.70;;
1691;SDS011;843;52.054;8.552;2023-07-29T00:30:55;4.00;;;2.93;;
1691;SDS011;843;52.054;8.552;2023-07-29T00:33:22;4.07;;;2.67;;
1691;SDS011;843;52.054;8.552;2023-07-29T00:35:49;2.70;;;2.50;;
1691;SDS011;843;52.054;8.552;2023-07-29T00:38:15;4.67;;;4.20;;
1691;SDS011;843;52.054;8.552;2023-07-29T00:40:42;3.63;;;3.17;;
1691;SDS011;843;52.054;8.552;2023-07-29T00:43:08;3.10;;;2.73;;
1691;SDS011;843;52.054;8.552;2023-07-29T00:45:35;3.07;;;2.70;;
1691;SDS011;843;52.054;8.552;2023-07-29T00:48:02;5.10;;;3.73;;
1691;SDS011;843;52.054;8.552;2023-07-29T00:50:30;3.43;;;2.87;;
1691;SDS011;843;52.054;8.552;2023-07-29T00:52:57;4.10;;;3.53;;
1691;SDS011;843;52.054;8.552;2023-07-29T00:55:23;3.20;;;2.90;;
1691;SDS011;843;52.054;8.552;2023-07-29T00:57:50;3.40;;;3.10;;
1691;SDS011;843;52.054;8.552;2023-07-29T01:00:19;3.70;;;3.40;;
1691;SDS011;843;52.054;8.552;2023-07-29T01:02:45;3.60;;;3.30;;
1691;SDS011;843;52.054;8.552;2023-07-29T01:05:12;4.37;;;3.30;;
1691;SDS011;843;52.054;8.552;2023-07-29T01:07:43;3.27;;;2.97;;
1691;SDS011;843;52.054;8.552;2023-07-29T01:10:14;3.50;;;3.20;;
1691;SDS011;843;52.054;8.552;2023-07-29T01:12:46;3.87;;;3.57;;
1691;SDS011;843;52.054;8.552;2023-07-29T01:15:16;3.30;;;3.00;;
1691;SDS011;843;52.054;8.552;2023-07-29T01:17:46;3.80;;;3.50;;
1691;SDS011;843;52.054;8.552;2023-07-29T01:20:14;4.80;;;3.37;;
1691;SDS011;843;52.054;8.552;2023-07-29T01:22:42;4.07;;;3.37;;
1691;SDS011;843;52.054;8.552;2023-07-29T01:25:10;3.60;;;3.30;;
1691;SDS011;843;52.054;8.552;2023-07-29T01:27:37;4.37;;;3.20;;
1691;SDS011;843;52.054;8.552;2023-07-29T01:30:04;3.80;;;3.50;;
1691;SDS011;843;52.054;8.552;2023-07-29T01:32:32;4.67;;;3.27;;
1691;SDS011;843;52.054;8.552;2023-07-29T01:35:03;3.50;;;3.20;;
1691;SDS011;843;52.054;8.552;2023-07-29T01:37:30;4.10;;;3.70;;
1691;SDS011;843;52.054;8.552;2023-07-29T01:39:58;3.93;;;3.53;;
1691;SDS011;843;52.054;8.552;2023-07-29T01:42:26;3.30;;;3.10;;
1691;SDS011;843;52.054;8.552;2023-07-29T01:44:53;3.53;;;3.10;;
1691;SDS011;843;52.054;8.552;2023-07-29T01:47:20;3.17;;;2.87;;
1691;SDS011;843;52.054;8.552;2023-07-29T01:49:47;2.90;;;2.70;;
1691;SDS011;843;52.054;8.552;2023-07-29T01:52:13;3.57;;;3.27;;
1691;SDS011;843;52.054;8.552;2023-07-29T01:54:40;3.30;;;2.90;;
1691;SDS011;843;52.054;8.552;2023-07-29T01:57:06;3.70;;;3.40;;
1691;SDS011;843;52.054;8.552;2023-07-29T01:59:34;3.60;;;3.30;;
1691;SDS011;843;52.054;8.552;2023-07-29T02:02:00;3.83;;;3.47;;
1691;SDS011;843;52.054;8.552;2023-07-29T02:04:26;3.67;;;3.37;;
1691;SDS011;843;52.054;8.552;2023-07-29T02:06:53;3.00;;;2.70;;
1691;SDS011;843;52.054;8.552;2023-07-29T02:09:20;3.60;;;2.93;;
1691;SDS011;843;52.054;8.552;2023-07-29T02:11:46;3.70;;;3.40;;
1691;SDS011;843;52.054;8.552;2023-07-29T02:14:13;4.20;;;3.80;;
1691;SDS011;843;52.054;8.552;2023-07-29T02:16:40;3.50;;;3.20;;
1691;SDS011;843;52.054;8.552;2023-07-29T02:19:07;3.97;;;3.63;;
1691;SDS011;843;52.054;8.552;2023-07-29T02:21:33;4.63;;;3.27;;
1691;SDS011;843;52.054;8.552;2023-07-29T02:24:00;4.00;;;3.70;;
1691;SDS011;843;52.054;8.552;2023-07-29T02:26:26;4.10;;;3.70;;
1691;SDS011;843;52.054;8.552;2023-07-29T02:28:52;5.03;;;3.70;;
1691;SDS011;843;52.054;8.552;2023-07-29T02:31:20;4.53;;;4.23;;
1691;SDS011;843;52.054;8.552;2023-07-29T02:33:48;3.93;;;3.63;;
1691;SDS011;843;52.054;8.552;2023-07-29T02:36:15;4.00;;;3.60;;
1691;SDS011;843;52.054;8.552;2023-07-29T02:38:42;5.90;;;3.87;;
1691;SDS011;843;52.054;8.552;2023-07-29T02:41:08;4.20;;;3.80;;
1691;SDS011;843;52.054;8.552;2023-07-29T02:43:35;4.47;;;4.07;;
1691;SDS011;843;52.054;8.552;2023-07-29T02:46:02;5.43;;;4.40;;
1691;SDS011;843;52.054;8.552;2023-07-29T02:48:28;5.40;;;4.90;;
1691;SDS011;843;52.054;8.552;2023-07-29T02:50:56;4.07;;;3.67;;
1691;SDS011;843;52.054;8.552;2023-07-29T02:53:23;4.43;;;4.03;;
1691;SDS011;843;52.054;8.552;2023-07-29T02:55:49;5.07;;;4.53;;
1691;SDS011;843;52.054;8.552;2023-07-29T02:58:16;5.20;;;4.00;;
1691;SDS011;843;52.054;8.552;2023-07-29T03:00:42;5.00;;;4.20;;
1691;SDS011;843;52.054;8.552;2023-07-29T03:03:09;4.43;;;4.00;;
1691;SDS011;843;52.054;8.552;2023-07-29T03:05:35;3.77;;;3.43;;
1691;SDS011;843;52.054;8.552;2023-07-29T03:08:04;4.07;;;3.67;;
1691;SDS011;843;52.054;8.552;2023-07-29T03:10:31;3.70;;;3.40;;
1691;SDS011;843;52.054;8.552;2023-07-29T03:12:57;3.40;;;3.10;;
1691;SDS011;843;52.054;8.552;2023-07-29T03:15:24;3.97;;;3.67;;
1691;SDS011;843;52.054;8.552;2023-07-29T03:17:50;3.30;;;3.10;;
1691;SDS011;843;52.054;8.552;2023-07-29T03:20:17;4.53;;;3.40;;
1691;SDS011;843;52.054;8.552;2023-07-29T03:22:44;3.90;;;3.10;;
1691;SDS011;843;52.054;8.552;2023-07-29T03:25:11;3.10;;;2.80;;
1691;SDS011;843;52.054;8.552;2023-07-29T03:27:38;4.10;;;3.30;;
1691;SDS011;843;52.054;8.552;2023-07-29T03:30:06;4.30;;;3.00;;
1691;SDS011;843;52.054;8.552;2023-07-29T03:32:32;3.30;;;3.00;;
1691;SDS011;843;52.054;8.552;2023-07-29T03:34:59;3.17;;;2.90;;
1691;SDS011;843;52.054;8.552;2023-07-29T03:37:25;3.53;;;3.23;;
1691;SDS011;843;52.054;8.552;2023-07-29T03:39:51;3.30;;;3.00;;
1691;SDS011;843;52.054;8.552;2023-07-29T03:42:19;3.50;;;3.20;;
1691;SDS011;843;52.054;8.552;2023-07-29T03:44:46;3.63;;;3.33;;
1691;SDS011;843;52.054;8.552;2023-07-29T03:47:12;3.67;;;3.37;;
1691;SDS011;843;52.054;8.552;2023-07-29T03:49:38;3.40;;;3.10;;
1691;SDS011;843;52.054;8.552;2023-07-29T03:52:05;3.57;;;3.27;;
1691;SDS011;843;52.054;8.552;2023-07-29T03:54:32;3.93;;;2.87;;
1691;SDS011;843;52.054;8.552;2023-07-29T03:56:58;3.30;;;3.00;;
1691;SDS011;843;52.054;8.552;2023-07-29T03:59:26;3.80;;;3.43;;
1691;SDS011;843;52.054;8.552;2023-07-29T04:01:52;3.77;;;3.47;;
1691;SDS011;843;52.054;8.552;2023-07-29T04:04:19;3.33;;;3.13;;
1691;SDS011;843;52.054;8.552;2023-07-29T04:06:45;3.37;;;3.17;;
1691;SDS011;843;52.054;8.552;2023-07-29T04:09:12;3.30;;;2.90;;
1691;SDS011;843;52.054;8.552;2023-07-29T04:11:38;3.07;;;2.77;;
1691;SDS011;843;52.054;8.552;2023-07-29T04:14:05;3.00;;;2.80;;
1691;SDS011;843;52.054;8.552;2023-07-29T04:16:32;3.43;;;3.10;;
1691;SDS011;843;52.054;8.552;2023-07-29T04:18:59;3.47;;;3.17;;
1691;SDS011;843;52.054;8.552;2023-07-29T04:21:25;3.20;;;2.90;;
1691;SDS011;843;52.054;8.552;2023-07-29T04:23:52;3.00;;;2.80;;
1691;SDS011;843;52.054;8.552;2023-07-29T04:26:18;3.57;;;3.20;;
1691;SDS011;843;52.054;8.552;2023-07-29T04:28:45;3.70;;;3.40;;
1691;SDS011;843;52.054;8.552;2023-07-29T04:31:11;3.57;;;3.27;;
1691;SDS011;843;52.054;8.552;2023-07-29T04:33:39;3.67;;;3.37;;
1691;SDS011;843;52.054;8.552;2023-07-29T04:36:05;4.30;;;3.10;;
1691;SDS011;843;52.054;8.552;2023-07-29T04:38:32;3.47;;;3.10;;
1691;SDS011;843;52.054;8.552;2023-07-29T04:40:59;3.37;;;3.07;;
1691;SDS011;843;52.054;8.552;2023-07-29T04:43:27;5.00;;;3.60;;
1691;SDS011;843;52.054;8.552;2023-07-29T04:45:53;3.00;;;2.70;;
1691;SDS011;843;52.054;8.552;2023-07-29T04:48:20;3.87;;;3.10;;
1691;SDS011;843;52.054;8.552;2023-07-29T04:50:47;4.00;;;2.57;;
1691;SDS011;843;52.054;8.552;2023-07-29T04:53:14;3.80;;;3.50;;
1691;SDS011;843;52.054;8.552;2023-07-29T04:55:41;2.73;;;2.53;;
1691;SDS011;843;52.054;8.552;2023-07-29T04:58:07;3.20;;;3.00;;
1691;SDS011;843;52.054;8.552;2023-07-29T05:00:34;3.50;;;3.23;;
1691;SDS011;843;52.054;8.552;2023-07-29T05:03:00;3.50;;;3.20;;
1691;SDS011;843;52.054;8.552;2023-07-29T05:05:27;3.00;;;2.80;;
1691;SDS011;843;52.054;8.552;2023-07-29T05:07:55;3.03;;;2.83;;
1691;SDS011;843;52.054;8.552;2023-07-29T05:10:21;3.37;;;3.07;;
1691;SDS011;843;52.054;8.552;2023-07-29T05:12:48;2.97;;;2.73;;
1691;SDS011;843;52.054;8.552;2023-07-29T05:15:14;3.07;;;2.77;;
1691;SDS011;843;52.054;8.552;2023-07-29T05:17:40;2.67;;;2.27;;
1691;SDS011;843;52.054;8.552;2023-07-29T05:20:07;2.50;;;2.30;;
1691;SDS011;843;52.054;8.552;2023-07-29T05:22:34;2.60;;;2.40;;
1691;SDS011;843;52.054;8.552;2023-07-29T05:25:02;4.07;;;2.40;;
1691;SDS011;843;52.054;8.552;2023-07-29T05:27:28;2.50;;;2.30;;
1691;SDS011;843;52.054;8.552;2023-07-29T05:29:55;5.43;;;2.33;;
1691;SDS011;843;52.054;8.552;2023-07-29T05:32:21;2.63;;;2.43;;
1691;SDS011;843;52.054;8.552;2023-07-29T05:34:48;2.50;;;2.30;;
1691;SDS011;843;52.054;8.552;2023-07-29T05:37:14;2.80;;;2.20;;
1691;SDS011;843;52.054;8.552;2023-07-29T05:39:40;2.60;;;2.40;;
1691;SDS011;843;52.054;8.552;2023-07-29T05:42:08;2.57;;;2.37;;
1691;SDS011;843;52.054;8.552;2023-07-29T05:44:34;2.87;;;2.30;;
1691;SDS011;843;52.054;8.552;2023-07-29T05:47:01;3.70;;;2.30;;
1691;SDS011;843;52.054;8.552;2023-07-29T05:49:27;2.50;;;1.97;;
1691;SDS011;843;52.054;8.552;2023-07-29T05:51:54;2.87;;;2.57;;
1691;SDS011;843;52.054;8.552;2023-07-29T05:54:20;4.30;;;2.60;;
1691;SDS011;843;52.054;8.552;2023-07-29T05:56:46;5.13;;;2.57;;
1691;SDS011;843;52.054;8.552;2023-07-29T05:59:14;2.37;;;2.17;;
1691;SDS011;843;52.054;8.552;2023-07-29T06:01:41;2.30;;;2.10;;
1691;SDS011;843;52.054;8.552;2023-07-29T06:04:07;4.10;;;3.33;;
1691;SDS011;843;52.054;8.552;2023-07-29T06:06:33;2.93;;;2.70;;
1691;SDS011;843;52.054;8.552;2023-07-29T06:09:00;3.30;;;3.00;;
1691;SDS011;843;52.054;8.552;2023-07-29T06:11:26;4.23;;;3.27;;
1691;SDS011;843;52.054;8.552;2023-07-29T06:13:52;3.60;;;3.00;;
1691;SDS011;843;52.054;8.552;2023-07-29T06:16:20;3.10;;;2.90;;
1691;SDS011;843;52.054;8.552;2023-07-29T06:18:47;2.50;;;2.30;;
1691;SDS011;843;52.054;8.552;2023-07-29T06:21:13;3.53;;;3.23;;
1691;SDS011;843;52.054;8.552;2023-07-29T06:23:42;4.13;;;2.90;;
1691;SDS011;843;52.054;8.552;2023-07-29T06:26:08;6.00;;;2.90;;
1691;SDS011;843;52.054;8.552;2023-07-29T06:28:35;3.60;;;3.10;;
1691;SDS011;843;52.054;8.552;2023-07-29T06:31:01;3.77;;;3.00;;
1691;SDS011;843;52.054;8.552;2023-07-29T06:33:29;2.73;;;2.53;;
1691;SDS011;843;52.054;8.552;2023-07-29T06:35:55;5.13;;;3.70;;
1691;SDS011;843;52.054;8.552;2023-07-29T06:38:21;3.90;;;3.60;;
1691;SDS011;843;52.054;8.552;2023-07-29T06:40:48;4.63;;;4.33;;
1691;SDS011;843;52.054;8.552;2023-07-29T06:43:14;3.90;;;3.60;;
1691;SDS011;843;52.054;8.552;2023-07-29T06:45:41;5.50;;;5.10;;
1691;SDS011;843;52.054;8.552;2023-07-29T06:48:07;5.93;;;5.43;;
1691;SDS011;843;52.054;8.552;2023-07-29T06:50:35;5.20;;;4.87;;
1691;SDS011;843;52.054;8.552;2023-07-29T06:53:01;6.60;;;5.97;;
1691;SDS011;843;52.054;8.552;2023-07-29T06:55:28;7.23;;;6.63;;
1691;SDS011;843;52.054;8.552;2023-07-29T06:57:54;6.90;;;6.27;;
1691;SDS011;843;52.054;8.552;2023-07-29T07:00:21;6.10;;;5.60;;
1691;SDS011;843;52.054;8.552;2023-07-29T07:02:47;6.60;;;6.00;;
1691;SDS011;843;52.054;8.552;2023-07-29T07:05:14;6.87;;;6.17;;
1691;SDS011;843;52.054;8.552;2023-07-29T07:07:41;8.73;;;7.87;;
1691;SDS011;843;52.054;8.552;2023-07-29T07:10:08;10.80;;;9.77;;
1691;SDS011;843;52.054;8.552;2023-07-29T07:12:34;11.33;;;10.23;;
1691;SDS011;843;52.054;8.552;2023-07-29T07:15:01;15.50;;;13.80;;
1691;SDS011;843;52.054;8.552;2023-07-29T07:17:28;14.93;;;13.47;;
1691;SDS011;843;52.054;8.552;2023-07-29T07:19:54;16.00;;;14.50;;
1691;SDS011;843;52.054;8.552;2023-07-29T07:22:20;17.53;;;15.83;;
1691;SDS011;843;52.054;8.552;2023-07-29T07:24:48;17.73;;;15.73;;
1691;SDS011;843;52.054;8.552;2023-07-29T07:27:14;17.83;;;16.13;;
1691;SDS011;843;52.054;8.552;2023-07-29T07:29:41;18.43;;;16.53;;
1691;SDS011;843;52.054;8.552;2023-07-29T07:32:07;17.97;;;16.33;;
1691;SDS011;843;52.054;8.552;2023-07-29T07:34:34;16.83;;;15.30;;
1691;SDS011;843;52.054;8.552;2023-07-29T07:37:00;16.27;;;14.87;;
1691;SDS011;843;52.054;8.552;2023-07-29T07:39:26;15.03;;;13.73;;
1691;SDS011;843;52.054;8.552;2023-07-29T07:41:54;13.53;;;12.33;;
1691;SDS011;843;52.054;8.552;2023-07-29T07:44:21;14.40;;;13.10;;
1691;SDS011;843;52.054;8.552;2023-07-29T07:46:47;12.57;;;11.57;;
1691;SDS011;843;52.054;8.552;2023-07-29T07:49:13;13.90;;;12.70;;
1691;SDS011;843;52.054;8.552;2023-07-29T07:51:40;11.07;;;10.00;;
1691;SDS011;843;52.054;8.552;2023-07-29T07:54:06;10.80;;;9.90;;
1691;SDS011;843;52.054;8.552;2023-07-29T07:56:33;10.90;;;10.10;;
1691;SDS011;843;52.054;8.552;2023-07-29T07:59:00;9.10;;;8.40;;
1691;SDS011;843;52.054;8.552;2023-07-29T08:01:27;7.57;;;6.97;;
1691;SDS011;843;52.054;8.552;2023-07-29T08:03:53;9.43;;;7.33;;
1691;SDS011;843;52.054;8.552;2023-07-29T08:06:20;6.67;;;6.17;;
1691;SDS011;843;52.054;8.552;2023-07-29T08:08:46;6.70;;;5.33;;
1691;SDS011;843;52.054;8.552;2023-07-29T08:11:12;5.83;;;5.33;;
1691;SDS011;843;52.054;8.552;2023-07-29T08:13:39;5.23;;;4.73;;
1691;SDS011;843;52.054;8.552;2023-07-29T08:16:06;5.60;;;5.10;;
1691;SDS011;843;52.054;8.552;2023-07-29T08:18:33;4.80;;;4.40;;
1691;SDS011;843;52.054;8.552;2023-07-29T08:20:59;4.53;;;4.13;;
1691;SDS011;843;52.054;8.552;2023-07-29T08:23:28;3.93;;;3.60;;
1691;SDS011;843;52.054;8.552;2023-07-29T08:25:55;3.50;;;3.20;;
1691;SDS011;843;52.054;8.552;2023-07-29T08:28:26;3.53;;;3.23;;
1691;SDS011;843;52.054;8.552;2023-07-29T08:30:52;2.60;;;2.40;;
1691;SDS011;843;52.054;8.552;2023-07-29T08:33:20;2.50;;;2.30;;
1691;SDS011;843;52.054;8.552;2023-07-29T08:35:46;4.20;;;3.03;;
1691;SDS011;843;52.054;8.552;2023-07-29T08:38:13;3.10;;;2.87;;
1691;SDS011;843;52.054;8.552;2023-07-29T08:40:42;3.23;;;2.93;;
1691;SDS011;843;52.054;8.552;2023-07-29T08:43:08;2.40;;;2.20;;
1691;SDS011;843;52.054;8.552;2023-07-29T08:45:35;2.47;;;2.20;;
1691;SDS011;843;52.054;8.552;2023-07-29T08:48:02;2.93;;;1.80;;
1691;SDS011;843;52.054;8.552;2023-07-29T08:50:34;2.60;;;2.40;;
1691;SDS011;843;52.054;8.552;2023-07-29T08:53:01;2.33;;;2.07;;
1691;SDS011;843;52.054;8.552;2023-07-29T08:55:29;3.00;;;2.20;;
1691;SDS011;843;52.054;8.552;2023-07-29T08:57:56;5.33;;;1.80;;
1691;SDS011;843;52.054;8.552;2023-07-29T09:00:23;2.80;;;1.53;;
1691;SDS011;843;52.054;8.552;2023-07-29T09:02:49;3.13;;;1.57;;
1691;SDS011;843;52.054;8.552;2023-07-29T09:05:16;3.03;;;1.20;;
1691;SDS011;843;52.054;8.552;2023-07-29T09:07:43;1.33;;;1.23;;
1691;SDS011;843;52.054;8.552;2023-07-29T09:10:10;2.10;;;1.27;;
1691;SDS011;843;52.054;8.552;2023-07-29T09:12:39;1.47;;;1.13;;
1691;SDS011;843;52.054;8.552;2023-07-29T09:15:06;1.80;;;1.40;;
1691;SDS011;843;52.054;8.552;2023-07-29T09:17:32;1.60;;;1.40;;
1691;SDS011;843;52.054;8.552;2023-07-29T09:19:59;2.37;;;1.50;;
1691;SDS011;843;52.054;8.552;2023-07-29T09:22:26;1.57;;;1.47;;
1691;SDS011;843;52.054;8.552;2023-07-29T09:24:54;3.47;;;1.30;;
1691;SDS011;843;52.054;8.552;2023-07-29T09:27:23;2.00;;;1.33;;
1691;SDS011;843;52.054;8.552;2023-07-29T09:29:49;2.47;;;1.43;;
1691;SDS011;843;52.054;8.552;2023-07-29T09:32:19;1.57;;;1.30;;
1691;SDS011;843;52.054;8.552;2023-07-29T09:34:46;1.27;;;1.03;;
1691;SDS011;843;52.054;8.552;2023-07-29T09:37:15;1.93;;;0.97;;
1691;SDS011;843;52.054;8.552;2023-07-29T09:39:43;1.67;;;1.40;;
1691;SDS011;843;52.054;8.552;2023-07-29T09:42:12;1.53;;;1.00;;
1691;SDS011;843;52.054;8.552;2023-07-29T09:44:42;2.10;;;1.13;;
1691;SDS011;843;52.054;8.552;2023-07-29T09:47:08;1.50;;;1.00;;
1691;SDS011;843;52.054;8.552;2023-07-29T09:49:35;1.63;;;1.10;;
1691;SDS011;843;52.054;8.552;2023-07-29T09:52:02;1.10;;;0.70;;
1691;SDS011;843;52.054;8.552;2023-07-29T09:54:30;1.40;;;1.00;;
1691;SDS011;843;52.054;8.552;2023-07-29T09:56:56;1.47;;;0.97;;
1691;SDS011;843;52.054;8.552;2023-07-29T09:59:24;1.10;;;0.90;;
1691;SDS011;843;52.054;8.552;2023-07-29T10:01:51;1.40;;;0.77;;
1691;SDS011;843;52.054;8.552;2023-07-29T10:04:17;1.60;;;1.20;;
1691;SDS011;843;52.054;8.552;2023-07-29T10:06:44;1.30;;;0.90;;
1691;SDS011;843;52.054;8.552;2023-07-29T10:09:12;2.73;;;1.20;;
1691;SDS011;843;52.054;8.552;2023-07-29T10:11:38;2.80;;;1.27;;
1691;SDS011;843;52.054;8.552;2023-07-29T10:14:05;1.40;;;1.10;;
1691;SDS011;843;52.054;8.552;2023-07-29T10:16:34;3.43;;;1.37;;
1691;SDS011;843;52.054;8.552;2023-07-29T10:19:00;1.30;;;0.90;;
1691;SDS011;843;52.054;8.552;2023-07-29T10:21:27;1.37;;;0.90;;
1691;SDS011;843;52.054;8.552;2023-07-29T10:23:54;4.80;;;1.33;;
1691;SDS011;843;52.054;8.552;2023-07-29T10:26:24;1.40;;;1.30;;
1691;SDS011;843;52.054;8.552;2023-07-29T10:28:51;1.70;;;1.27;;
1691;SDS011;843;52.054;8.552;2023-07-29T10:31:18;1.50;;;0.90;;
1691;SDS011;843;52.054;8.552;2023-07-29T10:33:48;1.10;;;0.80;;
1691;SDS011;843;52.054;8.552;2023-07-29T10:36:15;1.80;;;1.20;;
1691;SDS011;843;52.054;8.552;2023-07-29T10:38:42;1.67;;;1.30;;
1691;SDS011;843;52.054;8.552;2023-07-29T10:41:09;1.50;;;1.20;;
1691;SDS011;843;52.054;8.552;2023-07-29T10:43:36;1.10;;;0.80;;
1691;SDS011;843;52.054;8.552;2023-07-29T10:46:15;1.70;;;1.20;;
1691;SDS011;843;52.054;8.552;2023-07-29T10:48:43;1.10;;;0.70;;
1691;SDS011;843;52.054;8.552;2023-07-29T10:51:23;1.40;;;0.80;;
1691;SDS011;843;52.054;8.552;2023-07-29T10:53:51;1.47;;;0.90;;
1691;SDS011;843;52.054;8.552;2023-07-29T10:56:24;1.30;;;0.80;;
1691;SDS011;843;52.054;8.552;2023-07-29T10:58:50;1.20;;;0.70;;
1691;SDS011;843;52.054;8.552;2023-07-29T11:01:23;1.20;;;0.90;;
1691;SDS011;843;52.054;8.552;2023-07-29T11:04:00;1.97;;;0.80;;
1691;SDS011;843;52.054;8.552;2023-07-29T11:06:28;2.43;;;1.00;;
1691;SDS011;843;52.054;8.552;2023-07-29T11:08:54;1.20;;;0.80;;
1691;SDS011;843;52.054;8.552;2023-07-29T11:11:21;1.30;;;0.97;;
1691;SDS011;843;52.054;8.552;2023-07-29T11:13:47;2.50;;;1.50;;
1691;SDS011;843;52.054;8.552;2023-07-29T11:16:14;2.60;;;1.17;;
1691;SDS011;843;52.054;8.552;2023-07-29T11:18:42;1.70;;;1.07;;
1691;SDS011;843;52.054;8.552;2023-07-29T11:21:09;1.33;;;0.90;;
1691;SDS011;843;52.054;8.552;2023-07-29T11:23:37;1.17;;;0.87;;
1691;SDS011;843;52.054;8.552;2023-07-29T11:26:04;1.10;;;0.70;;
1691;SDS011;843;52.054;8.552;2023-07-29T11:28:31;1.17;;;0.83;;
1691;SDS011;843;52.054;8.552;2023-07-29T11:31:03;6.57;;;3.73;;
1691;SDS011;843;52.054;8.552;2023-07-29T11:33:30;1.23;;;0.73;;
1691;SDS011;843;52.054;8.552;2023-07-29T11:35:56;1.47;;;0.80;;
1691;SDS011;843;52.054;8.552;2023-07-29T11:38:22;4.30;;;2.50;;
1691;SDS011;843;52.054;8.552;2023-07-29T11:40:57;8.67;;;4.60;;
1691;SDS011;843;52.054;8.552;2023-07-29T11:43:24;25.73;;;9.07;;
1691;SDS011;843;52.054;8.552;2023-07-29T11:45:51;21.70;;;9.87;;
1691;SDS011;843;52.054;8.552;2023-07-29T11:48:18;1.80;;;0.70;;
1691;SDS011;843;52.054;8.552;2023-07-29T11:50:45;11.83;;;4.50;;
1691;SDS011;843;52.054;8.552;2023-07-29T11:53:11;1.50;;;1.07;;
1691;SDS011;843;52.054;8.552;2023-07-29T11:55:38;1.20;;;0.80;;
1691;SDS011;843;52.054;8.552;2023-07-29T11:58:06;1.20;;;0.90;;
1691;SDS011;843;52.054;8.552;2023-07-29T12:00:33;2.40;;;0.97;;
1691;SDS011;843;52.054;8.552;2023-07-29T12:02:59;1.63;;;0.80;;
1691;SDS011;843;52.054;8.552;2023-07-29T12:05:26;1.20;;;0.90;;
1691;SDS011;843;52.054;8.552;2023-07-29T12:07:53;1.67;;;1.03;;
1691;SDS011;843;52.054;8.552;2023-07-29T12:10:19;3.47;;;1.20;;
1691;SDS011;843;52.054;8.552;2023-07-29T12:12:47;1.97;;;0.83;;
1691;SDS011;843;52.054;8.552;2023-07-29T12:15:22;1.63;;;1.00;;
1691;SDS011;843;52.054;8.552;2023-07-29T12:17:48;3.40;;;1.30;;
1691;SDS011;843;52.054;8.552;2023-07-29T12:20:14;1.70;;;1.00;;
1691;SDS011;843;52.054;8.552;2023-07-29T12:22:41;4.60;;;1.67;;
1691;SDS011;843;52.054;8.552;2023-07-29T12:25:07;1.43;;;1.10;;
1691;SDS011;843;52.054;8.552;2023-07-29T12:27:34;2.80;;;1.20;;
1691;SDS011;843;52.054;8.552;2023-07-29T12:30:01;2.70;;;1.40;;
1691;SDS011;843;52.054;8.552;2023-07-29T12:32:29;1.50;;;1.20;;
1691;SDS011;843;52.054;8.552;2023-07-29T12:34:56;1.60;;;1.27;;
1691;SDS011;843;52.054;8.552;2023-07-29T12:37:30;1.70;;;1.53;;
1691;SDS011;843;52.054;8.552;2023-07-29T12:39:57;1.80;;;1.50;;
1691;SDS011;843;52.054;8.552;2023-07-29T12:42:23;1.63;;;1.53;;
1691;SDS011;843;52.054;8.552;2023-07-29T12:44:51;1.87;;;1.23;;
1691;SDS011;843;52.054;8.552;2023-07-29T12:47:17;1.57;;;1.33;;
1691;SDS011;843;52.054;8.552;2023-07-29T12:49:45;1.83;;;1.50;;
1691;SDS011;843;52.054;8.552;2023-07-29T12:52:11;2.37;;;1.70;;
1691;SDS011;843;52.054;8.552;2023-07-29T12:54:38;2.13;;;1.20;;
1691;SDS011;843;52.054;8.552;2023-07-29T12:57:05;1.40;;;1.30;;
1691;SDS011;843;52.054;8.552;2023-07-29T12:59:32;2.60;;;1.60;;
1691;SDS011;843;52.054;8.552;2023-07-29T13:01:58;1.90;;;1.13;;
1691;SDS011;843;52.054;8.552;2023-07-29T13:04:24;2.23;;;1.33;;
1691;SDS011;843;52.054;8.552;2023-07-29T13:06:52;1.80;;;1.00;;
1691;SDS011;843;52.054;8.552;2023-07-29T13:09:18;1.40;;;1.13;;
1691;SDS011;843;52.054;8.552;2023-07-29T13:11:45;1.20;;;0.90;;
1691;SDS011;843;52.054;8.552;2023-07-29T13:14:11;1.20;;;0.87;;
1691;SDS011;843;52.054;8.552;2023-07-29T13:16:38;2.03;;;1.03;;
1691;SDS011;843;52.054;8.552;2023-07-29T13:19:05;2.53;;;1.23;;
1691;SDS011;843;52.054;8.552;2023-07-29T13:21:31;1.50;;;1.00;;
1691;SDS011;843;52.054;8.552;2023-07-29T13:23:59;2.83;;;1.50;;
1691;SDS011;843;52.054;8.552;2023-07-29T13:26:25;1.97;;;1.00;;
1691;SDS011;843;52.054;8.552;2023-07-29T13:28:51;1.93;;;0.70;;
1691;SDS011;843;52.054;8.552;2023-07-29T13:31:18;3.10;;;1.00;;
1691;SDS011;843;52.054;8.552;2023-07-29T13:33:44;1.50;;;1.20;;
1691;SDS011;843;52.054;8.552;2023-07-29T13:36:11;1.20;;;0.80;;
1691;SDS011;843;52.054;8.552;2023-07-29T13:38:37;2.10;;;1.33;;
1691;SDS011;843;52.054;8.552;2023-07-29T13:41:05;1.97;;;1.17;;
1691;SDS011;843;52.054;8.552;2023-07-29T13:43:31;1.30;;;1.07;;
1691;SDS011;843;52.054;8.552;2023-07-29T13:45:58;1.60;;;1.40;;
1691;SDS011;843;52.054;8.552;2023-07-29T13:48:24;1.37;;;1.20;;
1691;SDS011;843;52.054;8.552;2023-07-29T13:50:51;2.07;;;1.30;;
1691;SDS011;843;52.054;8.552;2023-07-29T13:53:17;1.30;;;1.20;;
1691;SDS011;843;52.054;8.552;2023-07-29T13:55:44;2.97;;;0.97;;
1691;SDS011;843;52.054;8.552;2023-07-29T13:58:11;1.60;;;1.10;;
1691;SDS011;843;52.054;8.552;2023-07-29T14:00:38;2.30;;;1.20;;
1691;SDS011;843;52.054;8.552;2023-07-29T14:03:04;1.80;;;1.37;;
1691;SDS011;843;52.054;8.552;2023-07-29T14:05:31;1.80;;;1.20;;
1691;SDS011;843;52.054;8.552;2023-07-29T14:07:57;1.70;;;1.20;;
1691;SDS011;843;52.054;8.552;2023-07-29T14:10:24;2.00;;;1.40;;
1691;SDS011;843;52.054;8.552;2023-07-29T14:12:50;1.53;;;1.30;;
1691;SDS011;843;52.054;8.552;2023-07-29T14:15:18;1.97;;;1.50;;
1691;SDS011;843;52.054;8.552;2023-07-29T14:17:45;5.13;;;1.73;;
1691;SDS011;843;52.054;8.552;2023-07-29T14:20:11;1.63;;;1.47;;
1691;SDS011;843;52.054;8.552;2023-07-29T14:22:38;2.77;;;1.77;;
1691;SDS011;843;52.054;8.552;2023-07-29T14:25:05;3.00;;;1.20;;
1691;SDS011;843;52.054;8.552;2023-07-29T14:27:31;1.80;;;1.47;;
1691;SDS011;843;52.054;8.552;2023-07-29T14:29:58;2.20;;;1.83;;
1691;SDS011;843;52.054;8.552;2023-07-29T14:32:26;3.30;;;1.30;;
1691;SDS011;843;52.054;8.552;2023-07-29T14:34:52;1.93;;;1.40;;
1691;SDS011;843;52.054;8.552;2023-07-29T14:37:18;1.90;;;1.50;;
1691;SDS011;843;52.054;8.552;2023-07-29T14:39:45;2.10;;;1.60;;
1691;SDS011;843;52.054;8.552;2023-07-29T14:42:11;2.20;;;1.97;;
1691;SDS011;843;52.054;8.552;2023-07-29T14:44:39;2.83;;;2.27;;
1691;SDS011;843;52.054;8.552;2023-07-29T14:49:34;3.30;;;1.90;;
1691;SDS011;843;52.054;8.552;2023-07-29T14:52:00;2.27;;;1.90;;
1691;SDS011;843;52.054;8.552;2023-07-29T14:54:27;1.87;;;1.47;;
1691;SDS011;843;52.054;8.552;2023-07-29T14:56:53;1.80;;;1.63;;
1691;SDS011;843;52.054;8.552;2023-07-29T14:59:20;3.17;;;1.87;;
1691;SDS011;843;52.054;8.552;2023-07-29T15:01:46;2.97;;;2.07;;
1691;SDS011;843;52.054;8.552;2023-07-29T15:04:13;2.73;;;2.03;;
1691;SDS011;843;52.054;8.552;2023-07-29T15:06:40;4.83;;;2.80;;
1691;SDS011;843;52.054;8.552;2023-07-29T15:09:07;4.87;;;2.70;;
1691;SDS011;843;52.054;8.552;2023-07-29T15:11:33;9.60;;;3.23;;
1691;SDS011;843;52.054;8.552;2023-07-29T15:14:00;7.83;;;4.00;;
1691;SDS011;843;52.054;8.552;2023-07-29T15:16:29;5.90;;;4.33;;
1691;SDS011;843;52.054;8.552;2023-07-29T15:18:55;6.30;;;4.87;;
1691;SDS011;843;52.054;8.552;2023-07-29T15:21:21;8.60;;;5.50;;
1691;SDS011;843;52.054;8.552;2023-07-29T15:23:49;7.90;;;5.17;;
1691;SDS011;843;52.054;8.552;2023-07-29T15:26:15;8.00;;;5.40;;
1691;SDS011;843;52.054;8.552;2023-07-29T15:28:42;7.20;;;4.53;;